createdAt,value
2019-06-10T00:00:16.143Z,978.31
2019-06-10T00:01:09.417Z,978.25
2019-06-10T00:02:07.401Z,978.25
2019-06-10T00:03:07.315Z,978.37
2019-06-10T00:04:12.260Z,978.25
2019-06-10T00:05:07.207Z,978.25
2019-06-10T00:06:07.033Z,978.26
2019-06-10T00:07:07.332Z,978.34
2019-06-10T00:08:07.048Z,978.26
2019-06-10T00:09:08.118Z,978.26
2019-06-10T00:10:07.413Z,978.20
2019-06-10T00:11:08.074Z,978.23
2019-06-10T00:12:07.676Z,978.09
2019-06-10T00:13:08.528Z,978.17
2019-06-10T00:14:07.496Z,978.06
2019-06-10T00:15:07.662Z,978.00
2019-06-10T00:16:07.875Z,978.06
2019-06-10T00:17:08.114Z,978.23
2019-06-10T00:18:38.173Z,978.14
2019-06-10T00:19:12.963Z,978.26
2019-06-10T00:20:08.200Z,978.37
2019-06-10T00:21:06.759Z,978.26
2019-06-10T00:22:08.138Z,978.17
2019-06-10T00:23:08.279Z,978.23
2019-06-10T00:24:08.266Z,978.23
2019-06-10T00:25:08.227Z,978.20
2019-06-10T00:26:09.239Z,978.23
2019-06-10T00:27:07.140Z,978.20
2019-06-10T00:28:07.376Z,978.12
2019-06-10T00:29:07.417Z,978.09
2019-06-10T00:30:07.788Z,978.06
2019-06-10T00:31:07.102Z,978.00
2019-06-10T00:32:08.479Z,977.89
2019-06-10T00:33:07.977Z,977.83
2019-06-10T00:34:08.143Z,977.86
2019-06-10T00:35:07.663Z,977.77
2019-06-10T00:36:09.360Z,977.83
2019-06-10T00:37:10.105Z,977.77
2019-06-10T00:38:08.980Z,977.80
2019-06-10T00:39:08.454Z,977.77
2019-06-10T00:40:09.883Z,977.66
2019-06-10T00:41:08.642Z,977.83
2019-06-10T00:42:09.619Z,977.86
2019-06-10T00:43:08.219Z,977.80
2019-06-10T00:44:13.034Z,977.74
2019-06-10T00:45:10.953Z,977.86
2019-06-10T00:46:07.757Z,977.74
2019-06-10T00:47:09.097Z,977.80
2019-06-10T00:48:24.972Z,977.83
2019-06-10T00:49:09.741Z,977.86
2019-06-10T00:50:10.228Z,977.74
2019-06-10T00:51:07.069Z,977.88
2019-06-10T00:52:07.401Z,977.85
2019-06-10T00:53:07.530Z,977.80
2019-06-10T00:54:08.260Z,977.91
2019-06-10T00:55:07.708Z,977.91
2019-06-10T00:56:08.138Z,977.94
2019-06-10T00:57:05.936Z,977.91
2019-06-10T00:58:06.052Z,977.80
2019-06-10T00:59:06.113Z,977.77
2019-06-10T01:00:25.429Z,977.91
2019-06-10T01:01:05.646Z,977.91
2019-06-10T01:02:07.810Z,977.85
2019-06-10T01:03:05.947Z,977.86
2019-06-10T01:04:08.403Z,977.91
2019-06-10T01:05:05.418Z,977.77
2019-06-10T01:06:06.367Z,977.86
2019-06-10T01:07:06.817Z,977.83
2019-06-10T01:08:04.943Z,977.71
2019-06-10T01:09:06.389Z,977.71
2019-06-10T01:10:05.066Z,977.68
2019-06-10T01:11:20.220Z,977.61
2019-06-10T01:12:05.142Z,977.68
2019-06-10T01:13:05.444Z,977.66
2019-06-10T01:14:05.531Z,977.58
2019-06-10T01:15:05.620Z,977.58
2019-06-10T01:16:05.760Z,977.49
2019-06-10T01:17:05.810Z,977.72
2019-06-10T01:18:05.797Z,977.55
2019-06-10T01:19:05.683Z,977.50
2019-06-10T01:20:05.727Z,977.50
2019-06-10T01:21:05.760Z,977.50
2019-06-10T01:22:05.695Z,977.47
2019-06-10T01:23:05.305Z,977.59
2019-06-10T01:24:05.378Z,977.35
2019-06-10T01:25:05.580Z,977.53
2019-06-10T01:26:07.510Z,977.50
2019-06-10T01:27:05.759Z,977.35
2019-06-10T01:28:05.988Z,977.32
2019-06-10T01:29:05.948Z,977.33
2019-06-10T01:30:18.543Z,977.44
2019-06-10T01:31:15.369Z,977.30
2019-06-10T01:32:05.583Z,977.30
2019-06-10T01:33:04.799Z,977.33
2019-06-10T01:34:05.828Z,977.30
2019-06-10T01:35:06.590Z,977.32
2019-06-10T01:36:05.470Z,977.30
2019-06-10T01:37:04.762Z,977.24
2019-06-10T01:38:06.166Z,977.41
2019-06-10T01:39:04.798Z,977.29
2019-06-10T01:40:06.308Z,977.27
2019-06-10T01:41:06.356Z,977.26
2019-06-10T01:42:06.471Z,977.15
2019-06-10T01:43:06.106Z,977.15
2019-06-10T01:44:14.601Z,977.29
2019-06-10T01:45:05.063Z,977.18
2019-06-10T01:46:05.052Z,977.32
2019-06-10T01:47:05.120Z,977.27
2019-06-10T01:48:04.896Z,977.32
2019-06-10T01:49:05.313Z,977.24
2019-06-10T01:50:05.162Z,977.24
2019-06-10T01:51:04.723Z,977.27
2019-06-10T01:52:05.055Z,977.30
2019-06-10T01:53:04.900Z,977.30
2019-06-10T01:54:04.925Z,977.27
2019-06-10T01:55:05.386Z,977.44
2019-06-10T01:56:05.198Z,977.30
2019-06-10T01:57:05.385Z,977.24
2019-06-10T01:58:04.463Z,977.35
2019-06-10T01:59:04.510Z,977.24
2019-06-10T02:00:15.474Z,977.27
2019-06-10T02:01:05.182Z,977.27
2019-06-10T02:02:05.228Z,977.06
2019-06-10T02:03:04.675Z,977.12
2019-06-10T02:04:04.811Z,977.04
2019-06-10T02:05:05.198Z,977.03
2019-06-10T02:06:05.107Z,977.21
2019-06-10T02:07:05.410Z,977.01
2019-06-10T02:08:05.329Z,977.06
2019-06-10T02:09:04.869Z,977.09
2019-06-10T02:10:05.043Z,977.06
2019-06-10T02:11:05.044Z,976.95
2019-06-10T02:12:04.898Z,976.95
2019-06-10T02:13:05.063Z,976.83
2019-06-10T02:14:04.674Z,976.92
2019-06-10T02:15:05.238Z,976.89
2019-06-10T02:16:15.732Z,976.83
2019-06-10T02:17:04.497Z,976.95
2019-06-10T02:18:04.627Z,976.87
2019-06-10T02:19:05.286Z,976.95
2019-06-10T02:20:05.376Z,976.84
2019-06-10T02:21:05.311Z,976.98
2019-06-10T02:22:04.597Z,976.90
2019-06-10T02:23:04.589Z,976.84
2019-06-10T02:24:04.612Z,976.90
2019-06-10T02:25:04.756Z,976.75
2019-06-10T02:26:05.004Z,976.68
2019-06-10T02:27:04.538Z,976.81
2019-06-10T02:28:04.601Z,976.71
2019-06-10T02:29:04.761Z,976.73
2019-06-10T02:30:28.024Z,976.81
2019-06-10T02:31:04.597Z,976.78
2019-06-10T02:32:05.629Z,976.67
2019-06-10T02:33:05.266Z,976.73
2019-06-10T02:34:05.453Z,976.75
2019-06-10T02:35:23.664Z,976.73
2019-06-10T02:36:05.344Z,976.75
2019-06-10T02:37:05.454Z,976.75
2019-06-10T02:38:05.078Z,976.67
2019-06-10T02:39:05.195Z,976.53
2019-06-10T02:40:05.197Z,976.58
2019-06-10T02:41:05.333Z,976.56
2019-06-10T02:42:05.107Z,976.64
2019-06-10T02:43:04.966Z,976.75
2019-06-10T02:44:05.128Z,976.61
2019-06-10T02:45:05.230Z,976.47
2019-06-10T02:46:05.430Z,976.55
2019-06-10T02:47:05.462Z,976.55
2019-06-10T02:48:05.388Z,976.49
2019-06-10T02:49:42.232Z,976.49
2019-06-10T02:50:09.567Z,976.47
2019-06-10T02:51:05.465Z,976.44
2019-06-10T02:52:04.617Z,976.70
2019-06-10T02:53:04.927Z,976.67
2019-06-10T02:54:05.472Z,976.58
2019-06-10T02:55:05.523Z,976.52
2019-06-10T02:56:04.909Z,976.64
2019-06-10T02:57:05.408Z,976.64
2019-06-10T02:58:04.447Z,976.61
2019-06-10T02:59:04.920Z,976.55
2019-06-10T03:00:23.332Z,976.70
2019-06-10T03:01:05.004Z,976.86
2019-06-10T03:02:04.650Z,976.73
2019-06-10T03:03:05.118Z,976.74
2019-06-10T03:04:05.168Z,976.67
2019-06-10T03:05:05.371Z,976.77
2019-06-10T03:06:09.122Z,976.70
2019-06-10T03:07:04.881Z,976.70
2019-06-10T03:08:04.864Z,976.70
2019-06-10T03:09:05.090Z,976.70
2019-06-10T03:10:13.973Z,976.70
2019-06-10T03:11:05.397Z,976.67
2019-06-10T03:12:05.389Z,976.64
2019-06-10T03:13:05.266Z,976.67
2019-06-10T03:14:04.883Z,976.75
2019-06-10T03:15:05.373Z,976.75
2019-06-10T03:16:05.461Z,976.80
2019-06-10T03:17:05.112Z,976.80
2019-06-10T03:18:05.464Z,976.70
2019-06-10T03:19:04.574Z,976.74
2019-06-10T03:20:04.622Z,976.73
2019-06-10T03:21:05.155Z,976.83
2019-06-10T03:22:04.707Z,976.95
2019-06-10T03:23:04.787Z,976.80
2019-06-10T03:24:05.255Z,976.95
2019-06-10T03:25:04.822Z,976.86
2019-06-10T03:26:04.992Z,976.83
2019-06-10T03:27:05.578Z,976.80
2019-06-10T03:28:04.848Z,976.89
2019-06-10T03:29:05.411Z,976.70
2019-06-10T03:30:20.765Z,976.64
2019-06-10T03:31:06.624Z,976.70
2019-06-10T03:32:06.097Z,976.44
2019-06-10T03:33:05.564Z,976.53
2019-06-10T03:34:05.883Z,976.44
2019-06-10T03:35:06.111Z,976.41
2019-06-10T03:36:04.755Z,976.39
2019-06-10T03:37:05.196Z,976.41
2019-06-10T03:38:05.279Z,976.39
2019-06-10T03:39:05.007Z,976.45
2019-06-10T03:40:04.773Z,976.53
2019-06-10T03:41:05.301Z,976.47
2019-06-10T03:42:05.063Z,976.56
2019-06-10T03:43:05.402Z,976.59
2019-06-10T03:44:05.386Z,976.65
2019-06-10T03:45:08.654Z,976.65
2019-06-10T03:46:05.397Z,976.81
2019-06-10T03:47:05.271Z,976.81
2019-06-10T03:48:04.545Z,976.81
2019-06-10T03:49:05.577Z,976.78
2019-06-10T03:50:04.731Z,976.73
2019-06-10T03:51:04.961Z,976.78
2019-06-10T03:52:05.445Z,976.81
2019-06-10T03:53:04.966Z,976.87
2019-06-10T03:54:04.985Z,976.78
2019-06-10T03:55:05.228Z,976.81
2019-06-10T03:56:04.665Z,976.95
2019-06-10T03:57:05.418Z,976.78
2019-06-10T03:58:12.848Z,976.81
2019-06-10T03:59:05.250Z,976.75
2019-06-10T04:00:13.852Z,976.73
2019-06-10T04:01:04.815Z,976.59
2019-06-10T04:02:04.871Z,976.56
2019-06-10T04:03:04.992Z,976.53
2019-06-10T04:04:05.000Z,976.53
2019-06-10T04:05:04.703Z,976.55
2019-06-10T04:06:05.303Z,976.61
2019-06-10T04:07:05.410Z,976.61
2019-06-10T04:08:04.490Z,976.44
2019-06-10T04:09:05.221Z,976.41
2019-06-10T04:10:05.665Z,976.55
2019-06-10T04:11:05.170Z,976.49
2019-06-10T04:12:04.786Z,976.55
2019-06-10T04:13:04.999Z,976.46
2019-06-10T04:14:04.837Z,976.55
2019-06-10T04:15:05.377Z,976.46
2019-06-10T04:16:05.593Z,976.37
2019-06-10T04:17:05.091Z,976.43
2019-06-10T04:18:05.341Z,976.43
2019-06-10T04:19:04.722Z,976.48
2019-06-10T04:20:15.427Z,976.37
2019-06-10T04:21:05.061Z,976.48
2019-06-10T04:22:04.521Z,976.36
2019-06-10T04:23:04.734Z,976.48
2019-06-10T04:24:04.879Z,976.50
2019-06-10T04:25:05.092Z,976.44
2019-06-10T04:26:05.015Z,976.38
2019-06-10T04:27:04.837Z,976.35
2019-06-10T04:28:05.237Z,976.53
2019-06-10T04:29:04.601Z,976.44
2019-06-10T04:30:04.819Z,976.44
2019-06-10T04:31:05.029Z,976.58
2019-06-10T04:32:05.734Z,976.61
2019-06-10T04:33:04.614Z,976.61
2019-06-10T04:34:05.128Z,976.64
2019-06-10T04:35:04.620Z,976.70
2019-06-10T04:36:05.455Z,976.70
2019-06-10T04:37:05.181Z,976.61
2019-06-10T04:38:05.180Z,976.70
2019-06-10T04:39:05.048Z,976.83
2019-06-10T04:40:05.122Z,976.77
2019-06-10T04:41:07.616Z,976.64
2019-06-10T04:42:05.505Z,976.69
2019-06-10T04:43:05.003Z,976.74
2019-06-10T04:44:10.138Z,976.77
2019-06-10T04:45:04.717Z,976.58
2019-06-10T04:46:05.254Z,976.74
2019-06-10T04:47:05.518Z,976.60
2019-06-10T04:48:05.804Z,976.60
2019-06-10T04:49:05.403Z,976.55
2019-06-10T04:50:04.604Z,976.58
2019-06-10T04:51:05.058Z,976.74
2019-06-10T04:52:05.232Z,976.63
2019-06-10T04:53:04.573Z,976.46
2019-06-10T04:54:05.428Z,976.43
2019-06-10T04:55:06.291Z,976.51
2019-06-10T04:56:04.827Z,976.34
2019-06-10T04:57:04.834Z,976.48
2019-06-10T04:58:05.472Z,976.42
2019-06-10T04:59:04.905Z,976.33
2019-06-10T05:00:14.660Z,976.30
2019-06-10T05:01:04.544Z,976.33
2019-06-10T05:02:06.142Z,976.39
2019-06-10T05:03:04.913Z,976.48
2019-06-10T05:04:05.178Z,976.45
2019-06-10T05:05:05.523Z,976.48
2019-06-10T05:06:04.728Z,976.45
2019-06-10T05:07:04.824Z,976.42
2019-06-10T05:08:05.265Z,976.39
2019-06-10T05:09:05.684Z,976.30
2019-06-10T05:10:05.328Z,976.30
2019-06-10T05:11:05.353Z,976.24
2019-06-10T05:12:05.361Z,976.30
2019-06-10T05:13:04.980Z,976.19
2019-06-10T05:14:04.739Z,976.13
2019-06-10T05:15:05.312Z,976.27
2019-06-10T05:16:05.293Z,976.27
2019-06-10T05:17:05.514Z,976.21
2019-06-10T05:18:07.434Z,976.30
2019-06-10T05:19:05.075Z,976.21
2019-06-10T05:20:05.073Z,976.15
2019-06-10T05:21:05.438Z,976.50
2019-06-10T05:22:05.266Z,976.24
2019-06-10T05:23:05.164Z,976.30
2019-06-10T05:24:05.672Z,976.35
2019-06-10T05:25:05.466Z,976.38
2019-06-10T05:26:05.420Z,976.41
2019-06-10T05:27:05.247Z,976.21
2019-06-10T05:28:04.973Z,976.29
2019-06-10T05:29:04.996Z,976.18
2019-06-10T05:30:05.161Z,976.20
2019-06-10T05:31:04.536Z,976.38
2019-06-10T05:32:04.873Z,976.43
2019-06-10T05:33:05.269Z,976.29
2019-06-10T05:34:04.614Z,976.40
2019-06-10T05:35:05.312Z,976.32
2019-06-10T05:36:05.449Z,976.52
2019-06-10T05:37:05.049Z,976.40
2019-06-10T05:38:05.158Z,976.52
2019-06-10T05:39:05.100Z,976.66
2019-06-10T05:40:05.131Z,976.60
2019-06-10T05:41:05.411Z,976.57
2019-06-10T05:42:05.125Z,976.54
2019-06-10T05:43:05.535Z,976.54
2019-06-10T05:44:09.728Z,976.42
2019-06-10T05:45:05.104Z,976.51
2019-06-10T05:46:04.752Z,976.59
2019-06-10T05:47:05.532Z,976.48
2019-06-10T05:48:04.536Z,976.48
2019-06-10T05:49:05.057Z,976.56
2019-06-10T05:50:05.463Z,976.59
2019-06-10T05:51:07.279Z,976.45
2019-06-10T05:52:04.915Z,976.45
2019-06-10T05:53:04.706Z,976.47
2019-06-10T05:54:04.866Z,976.36
2019-06-10T05:55:05.267Z,976.44
2019-06-10T05:56:04.757Z,976.47
2019-06-10T05:57:04.872Z,976.47
2019-06-10T05:58:04.928Z,976.41
2019-06-10T05:59:05.604Z,976.29
2019-06-10T06:00:15.003Z,976.29
2019-06-10T06:01:04.881Z,976.44
2019-06-10T06:02:05.281Z,976.38
2019-06-10T06:03:05.231Z,976.35
2019-06-10T06:04:12.966Z,976.23
2019-06-10T06:05:05.366Z,976.26
2019-06-10T06:06:05.069Z,976.23
2019-06-10T06:07:04.606Z,976.18
2019-06-10T06:08:09.173Z,976.23
2019-06-10T06:09:04.973Z,976.26
2019-06-10T06:10:04.895Z,976.26
2019-06-10T06:11:07.193Z,976.26
2019-06-10T06:12:05.622Z,976.46
2019-06-10T06:13:04.831Z,976.43
2019-06-10T06:14:05.341Z,976.34
2019-06-10T06:15:05.060Z,976.37
2019-06-10T06:16:05.254Z,976.28
2019-06-10T06:17:04.804Z,976.40
2019-06-10T06:18:13.884Z,976.46
2019-06-10T06:19:04.507Z,976.43
2019-06-10T06:20:04.824Z,976.34
2019-06-10T06:21:28.998Z,976.31
2019-06-10T06:22:05.189Z,976.43
2019-06-10T06:23:07.011Z,976.28
2019-06-10T06:24:04.751Z,976.34
2019-06-10T06:25:05.476Z,976.25
2019-06-10T06:26:05.325Z,976.34
2019-06-10T06:27:05.482Z,976.42
2019-06-10T06:28:05.102Z,976.19
2019-06-10T06:29:05.299Z,976.31
2019-06-10T06:30:17.669Z,976.22
2019-06-10T06:31:05.334Z,976.30
2019-06-10T06:32:04.916Z,976.19
2019-06-10T06:33:04.966Z,976.33
2019-06-10T06:34:05.168Z,976.21
2019-06-10T06:35:04.885Z,976.36
2019-06-10T06:36:04.997Z,976.38
2019-06-10T06:37:05.187Z,976.32
2019-06-10T06:38:05.291Z,976.26
2019-06-10T06:39:04.833Z,976.32
2019-06-10T06:40:04.902Z,976.41
2019-06-10T06:41:04.583Z,976.40
2019-06-10T06:42:05.064Z,976.34
2019-06-10T06:43:05.327Z,976.34
2019-06-10T06:44:09.928Z,976.31
2019-06-10T06:45:05.098Z,976.34
2019-06-10T06:46:05.643Z,976.25
2019-06-10T06:47:04.690Z,976.22
2019-06-10T06:48:04.874Z,976.24
2019-06-10T06:49:05.512Z,976.04
2019-06-10T06:50:04.899Z,976.24
2019-06-10T06:52:04.868Z,976.09
2019-06-10T06:53:33.024Z,976.09
2019-06-10T06:54:04.912Z,976.23
2019-06-10T06:55:04.642Z,976.14
2019-06-10T06:56:05.202Z,976.23
2019-06-10T06:57:04.689Z,976.02
2019-06-10T06:58:12.839Z,976.11
2019-06-10T06:59:05.255Z,975.99
2019-06-10T07:00:52.664Z,976.14
2019-06-10T07:01:14.324Z,976.05
2019-06-10T07:02:04.849Z,976.04
2019-06-10T07:03:05.022Z,976.01
2019-06-10T07:04:10.202Z,976.16
2019-06-10T07:05:04.647Z,976.10
2019-06-10T07:06:04.830Z,975.98
2019-06-10T07:07:04.672Z,976.04
2019-06-10T07:08:04.700Z,976.01
2019-06-10T07:09:08.635Z,975.95
2019-06-10T07:10:05.366Z,975.98
2019-06-10T07:11:05.138Z,976.06
2019-06-10T07:12:04.802Z,976.00
2019-06-10T07:13:05.003Z,976.03
2019-06-10T07:14:05.103Z,975.97
2019-06-10T07:15:05.310Z,976.00
2019-06-10T07:16:04.792Z,975.94
2019-06-10T07:17:05.317Z,975.91
2019-06-10T07:18:05.290Z,975.79
2019-06-10T07:19:05.417Z,975.85
2019-06-10T07:20:05.002Z,975.82
2019-06-10T07:21:05.160Z,975.76
2019-06-10T07:22:15.935Z,975.84
2019-06-10T07:23:04.808Z,975.78
2019-06-10T07:24:05.197Z,975.78
2019-06-10T07:25:07.072Z,975.75
2019-06-10T07:26:04.792Z,975.83
2019-06-10T07:27:05.288Z,975.77
2019-06-10T07:28:06.000Z,975.83
2019-06-10T07:29:05.441Z,975.89
2019-06-10T07:30:14.801Z,975.83
2019-06-10T07:31:23.738Z,975.94
2019-06-10T07:32:05.099Z,975.80
2019-06-10T07:33:05.144Z,975.88
2019-06-10T07:34:04.729Z,975.88
2019-06-10T07:35:05.112Z,975.94
2019-06-10T07:36:05.565Z,976.03
2019-06-10T07:37:04.685Z,975.96
2019-06-10T07:38:04.802Z,976.02
2019-06-10T07:39:05.300Z,975.90
2019-06-10T07:40:05.329Z,975.87
2019-06-10T07:41:04.966Z,975.90
2019-06-10T07:42:05.160Z,975.75
2019-06-10T07:43:05.088Z,975.75
2019-06-10T07:44:06.827Z,975.74
2019-06-10T07:45:05.089Z,975.60
2019-06-10T07:46:05.277Z,975.68
2019-06-10T07:47:05.086Z,975.65
2019-06-10T07:48:04.698Z,975.62
2019-06-10T07:49:05.787Z,975.64
2019-06-10T07:50:05.537Z,975.67
2019-06-10T07:51:04.924Z,975.84
2019-06-10T07:52:19.623Z,975.72
2019-06-10T07:53:04.703Z,975.83
2019-06-10T07:54:05.403Z,975.92
2019-06-10T07:55:04.676Z,976.00
2019-06-10T07:56:04.575Z,975.97
2019-06-10T07:57:04.915Z,976.08
2019-06-10T07:58:05.178Z,975.93
2019-06-10T07:59:04.727Z,976.07
2019-06-10T08:00:04.903Z,976.04
2019-06-10T08:01:05.510Z,976.12
2019-06-10T08:02:05.226Z,976.12
2019-06-10T08:03:05.114Z,976.02
2019-06-10T08:04:05.123Z,976.11
2019-06-10T08:05:05.426Z,975.99
2019-06-10T08:06:04.703Z,975.99
2019-06-10T08:07:05.109Z,975.84
2019-06-10T08:08:05.550Z,975.98
2019-06-10T08:09:04.960Z,976.07
2019-06-10T08:10:05.293Z,976.04
2019-06-10T08:11:04.860Z,976.13
2019-06-10T08:12:06.300Z,975.95
2019-06-10T08:13:05.209Z,975.86
2019-06-10T08:14:05.053Z,975.98
2019-06-10T08:15:05.424Z,975.97
2019-06-10T08:16:04.902Z,975.85
2019-06-10T08:17:05.543Z,975.97
2019-06-10T08:18:04.774Z,975.88
2019-06-10T08:19:34.642Z,976.00
2019-06-10T08:20:05.136Z,975.94
2019-06-10T08:21:04.544Z,975.99
2019-06-10T08:22:04.932Z,975.97
2019-06-10T08:23:05.151Z,976.02
2019-06-10T08:24:05.440Z,976.02
2019-06-10T08:25:05.465Z,976.02
2019-06-10T08:26:05.370Z,976.17
2019-06-10T08:27:05.425Z,976.14
2019-06-10T08:28:04.894Z,976.05
2019-06-10T08:29:05.396Z,976.26
2019-06-10T08:30:22.740Z,976.20
2019-06-10T08:31:05.580Z,976.14
2019-06-10T08:32:04.975Z,976.17
2019-06-10T08:33:05.373Z,976.20
2019-06-10T08:34:05.429Z,976.08
2019-06-10T08:35:05.312Z,976.02
2019-06-10T08:36:06.492Z,976.08
2019-06-10T08:37:05.054Z,976.14
2019-06-10T08:38:04.677Z,976.16
2019-06-10T08:39:05.338Z,976.07
2019-06-10T08:40:05.411Z,976.16
2019-06-10T08:41:05.943Z,976.10
2019-06-10T08:42:05.759Z,976.13
2019-06-10T08:43:05.147Z,976.01
2019-06-10T08:44:12.340Z,976.07
2019-06-10T08:45:05.374Z,976.06
2019-06-10T08:46:05.533Z,976.06
2019-06-10T08:47:04.947Z,976.00
2019-06-10T08:48:05.530Z,976.03
2019-06-10T08:49:05.409Z,976.09
2019-06-10T08:50:05.055Z,976.18
2019-06-10T08:51:04.919Z,976.12
2019-06-10T08:52:05.746Z,976.09
2019-06-10T08:53:17.421Z,976.14
2019-06-10T08:54:04.655Z,976.09
2019-06-10T08:55:04.661Z,976.00
2019-06-10T08:56:04.930Z,976.06
2019-06-10T08:57:05.878Z,976.09
2019-06-10T08:58:05.011Z,976.20
2019-06-10T08:59:05.140Z,976.15
2019-06-10T09:00:18.563Z,976.00
2019-06-10T09:01:04.991Z,976.20
2019-06-10T09:02:05.103Z,976.17
2019-06-10T09:03:05.403Z,976.20
2019-06-10T09:04:10.433Z,976.20
2019-06-10T09:05:05.594Z,976.17
2019-06-10T09:06:05.717Z,976.09
2019-06-10T09:07:05.802Z,976.26
2019-06-10T09:08:05.451Z,976.21
2019-06-10T09:09:05.111Z,976.09
2019-06-10T09:10:05.840Z,976.09
2019-06-10T09:11:05.344Z,976.24
2019-06-10T09:12:05.336Z,976.03
2019-06-10T09:13:05.487Z,976.09
2019-06-10T09:14:05.193Z,976.15
2019-06-10T09:15:05.492Z,976.15
2019-06-10T09:16:19.043Z,976.20
2019-06-10T09:17:05.405Z,976.26
2019-06-10T09:18:05.197Z,976.09
2019-06-10T09:19:04.803Z,976.17
2019-06-10T09:20:05.625Z,976.02
2019-06-10T09:21:05.675Z,976.02
2019-06-10T09:22:05.558Z,976.14
2019-06-10T09:23:22.965Z,976.11
2019-06-10T09:24:05.066Z,975.99
2019-06-10T09:25:05.525Z,976.02
2019-06-10T09:26:04.873Z,976.13
2019-06-10T09:27:05.184Z,976.07
2019-06-10T09:28:05.615Z,976.01
2019-06-10T09:29:05.028Z,976.10
2019-06-10T09:30:05.300Z,976.24
2019-06-10T09:31:05.884Z,976.18
2019-06-10T09:32:04.870Z,976.24
2019-06-10T09:33:05.397Z,976.15
2019-06-10T09:34:05.368Z,976.17
2019-06-10T09:35:05.178Z,976.14
2019-06-10T09:36:05.502Z,976.29
2019-06-10T09:37:05.186Z,976.20
2019-06-10T09:38:05.496Z,976.23
2019-06-10T09:39:04.721Z,976.05
2019-06-10T09:40:05.305Z,976.08
2019-06-10T09:41:06.939Z,976.22
2019-06-10T09:42:07.113Z,976.22
2019-06-10T09:43:05.491Z,976.22
2019-06-10T09:44:13.177Z,976.22
2019-06-10T09:45:05.298Z,976.16
2019-06-10T09:46:04.837Z,976.16
2019-06-10T09:47:04.674Z,976.07
2019-06-10T09:48:13.499Z,976.19
2019-06-10T09:49:05.490Z,976.13
2019-06-10T09:50:05.526Z,976.04
2019-06-10T09:51:05.462Z,976.13
2019-06-10T09:52:04.793Z,976.33
2019-06-10T09:53:04.804Z,976.12
2019-06-10T09:54:07.220Z,976.18
2019-06-10T09:55:05.453Z,976.18
2019-06-10T09:56:04.826Z,976.12
2019-06-10T09:57:05.129Z,976.09
2019-06-10T09:58:05.564Z,976.15
2019-06-10T09:59:05.286Z,976.12
2019-06-10T10:00:05.474Z,976.20
2019-06-10T10:01:05.505Z,976.14
2019-06-10T10:02:07.537Z,976.26
2019-06-10T10:03:05.064Z,976.05
2019-06-10T10:04:05.208Z,976.23
2019-06-10T10:05:05.444Z,976.23
2019-06-10T10:06:15.897Z,976.17
2019-06-10T10:07:04.957Z,976.05
2019-06-10T10:08:05.386Z,976.05
2019-06-10T10:09:05.796Z,976.08
2019-06-10T10:10:06.144Z,976.05
2019-06-10T10:11:05.357Z,976.14
2019-06-10T10:12:05.021Z,976.02
2019-06-10T10:13:05.675Z,976.10
2019-06-10T10:14:10.733Z,976.07
2019-06-10T10:15:30.504Z,976.04
2019-06-10T10:16:06.266Z,975.95
2019-06-10T10:17:05.818Z,975.95
2019-06-10T10:18:05.261Z,975.92
2019-06-10T10:19:06.082Z,975.91
2019-06-10T10:20:05.804Z,975.85
2019-06-10T10:21:05.289Z,975.85
2019-06-10T10:22:05.040Z,975.91
2019-06-10T10:23:05.368Z,975.76
2019-06-10T10:24:14.094Z,975.85
2019-06-10T10:25:05.088Z,975.91
2019-06-10T10:26:05.511Z,975.88
2019-06-10T10:27:10.336Z,975.93
2019-06-10T10:28:05.512Z,975.81
2019-06-10T10:29:06.069Z,975.78
2019-06-10T10:30:05.153Z,975.81
2019-06-10T10:31:05.858Z,975.78
2019-06-10T10:32:05.588Z,975.77
2019-06-10T10:33:05.363Z,975.71
2019-06-10T10:34:05.467Z,975.74
2019-06-10T10:35:05.397Z,975.62
2019-06-10T10:36:05.717Z,975.77
2019-06-10T10:37:05.972Z,975.65
2019-06-10T10:38:05.525Z,975.71
2019-06-10T10:39:08.544Z,975.80
2019-06-10T10:40:05.527Z,975.74
2019-06-10T10:41:05.642Z,975.65
2019-06-10T10:42:05.226Z,975.71
2019-06-10T10:43:32.612Z,975.68
2019-06-10T10:44:05.489Z,975.68
2019-06-10T10:45:05.384Z,975.59
2019-06-10T10:46:06.467Z,975.59
2019-06-10T10:47:05.790Z,975.56
2019-06-10T10:48:05.992Z,975.53
2019-06-10T10:49:04.947Z,975.71
2019-06-10T10:50:05.713Z,975.59
2019-06-10T10:51:05.364Z,975.56
2019-06-10T10:52:06.014Z,975.52
2019-06-10T10:53:05.407Z,975.58
2019-06-10T10:54:32.709Z,975.46
2019-06-10T10:55:07.689Z,975.61
2019-06-10T10:56:05.455Z,975.58
2019-06-10T10:57:05.281Z,975.46
2019-06-10T10:58:05.582Z,975.55
2019-06-10T10:59:05.502Z,975.47
2019-06-10T11:00:05.166Z,975.44
2019-06-10T11:01:05.863Z,975.41
2019-06-10T11:02:05.503Z,975.30
2019-06-10T11:03:06.189Z,975.41
2019-06-10T11:04:05.481Z,975.44
2019-06-10T11:05:12.665Z,975.44
2019-06-10T11:06:05.034Z,975.41
2019-06-10T11:07:05.172Z,975.38
2019-06-10T11:08:05.603Z,975.35
2019-06-10T11:09:05.485Z,975.38
2019-06-10T11:10:05.171Z,975.33
2019-06-10T11:11:06.539Z,975.24
2019-06-10T11:12:05.760Z,975.41
2019-06-10T11:13:05.251Z,975.35
2019-06-10T11:14:05.102Z,975.27
2019-06-10T11:15:05.799Z,975.35
2019-06-10T11:16:05.350Z,975.30
2019-06-10T11:17:05.017Z,975.43
2019-06-10T11:18:05.770Z,975.32
2019-06-10T11:19:05.556Z,975.29
2019-06-10T11:20:05.170Z,975.32
2019-06-10T11:21:05.928Z,975.34
2019-06-10T11:22:05.790Z,975.26
2019-06-10T11:23:05.350Z,975.37
2019-06-10T11:24:05.589Z,975.29
2019-06-10T11:25:05.837Z,975.29
2019-06-10T11:26:05.076Z,975.29
2019-06-10T11:27:05.303Z,975.23
2019-06-10T11:28:05.311Z,975.14
2019-06-10T11:29:05.848Z,975.11
2019-06-10T11:30:05.619Z,975.05
2019-06-10T11:31:05.319Z,975.17
2019-06-10T11:32:06.952Z,975.17
2019-06-10T11:33:07.083Z,975.09
2019-06-10T11:34:05.075Z,975.15
2019-06-10T11:35:05.856Z,975.12
2019-06-10T11:36:05.478Z,975.03
2019-06-10T11:37:05.190Z,975.09
2019-06-10T11:38:05.262Z,974.87
2019-06-10T11:39:06.070Z,974.93
2019-06-10T11:40:05.871Z,974.95
2019-06-10T11:41:05.468Z,974.90
2019-06-10T11:42:05.345Z,974.95
2019-06-10T11:43:05.928Z,974.90
2019-06-10T11:44:10.083Z,974.87
2019-06-10T11:45:05.057Z,974.81
2019-06-10T11:46:08.366Z,974.87
2019-06-10T11:47:05.864Z,974.81
2019-06-10T11:48:05.551Z,974.70
2019-06-10T11:49:05.484Z,974.84
2019-06-10T11:50:05.099Z,974.75
2019-06-10T11:51:05.563Z,974.72
2019-06-10T11:52:05.119Z,974.75
2019-06-10T11:53:05.843Z,974.87
2019-06-10T11:54:06.075Z,974.86
2019-06-10T11:55:19.204Z,974.80
2019-06-10T11:56:05.533Z,974.80
2019-06-10T11:57:04.884Z,974.86
2019-06-10T11:58:05.502Z,974.71
2019-06-10T11:59:13.216Z,974.71
2019-06-10T12:00:17.214Z,974.76
2019-06-10T12:01:05.737Z,974.73
2019-06-10T12:02:06.697Z,974.67
2019-06-10T12:03:05.216Z,974.64
2019-06-10T12:04:05.172Z,974.64
2019-06-10T12:05:05.343Z,974.55
2019-06-10T12:06:06.362Z,974.64
2019-06-10T12:07:05.562Z,974.64
2019-06-10T12:08:05.568Z,974.73
2019-06-10T12:09:05.150Z,974.61
2019-06-10T12:10:05.289Z,974.72
2019-06-10T12:11:06.052Z,974.55
2019-06-10T12:12:05.974Z,974.72
2019-06-10T12:13:10.221Z,974.69
2019-06-10T12:14:05.434Z,974.61
2019-06-10T12:15:05.484Z,974.58
2019-06-10T12:17:29.441Z,974.37
2019-06-10T12:17:40.362Z,974.29
2019-06-10T12:18:09.666Z,974.29
2019-06-10T12:19:04.821Z,974.29
2019-06-10T12:20:05.898Z,974.26
2019-06-10T12:21:05.623Z,974.35
2019-06-10T12:22:08.076Z,974.47
2019-06-10T12:23:05.336Z,974.39
2019-06-10T12:24:05.739Z,974.33
2019-06-10T12:25:36.430Z,974.51
2019-06-10T12:26:05.952Z,974.42
2019-06-10T12:27:05.699Z,974.33
2019-06-10T12:28:08.317Z,974.33
2019-06-10T12:29:06.525Z,974.18